Time;durP1;ratioP1;P1;durP2;ratioP2;P2;SDS_P1;SDS_P2;PMS_P1;PMS_P2;Temp;Humidity;BMP_temperature;BMP_pressure;BME280_temperature;BME280_humidity;BME280_pressure;Samples;Min_cycle;Max_cycle;Signal;HPM_P1;HPM_P2
2023/04/27 00:00:06;;;;;;;3.95;2.15;;;;;;;;;;1027892;28;20022;-73
2023/04/27 00:00:37;;;;;;;16.23;4.57;;;;;;;;;;1028020;28;20089;-73
2023/04/27 00:01:13;;;;;;;4.10;3.03;;;;;;;;;;1026162;28;20029;-74
2023/04/27 00:01:45;;;;;;;5.40;2.60;;;;;;;;;;1026121;28;20022;-74
2023/04/27 00:02:16;;;;;;;11.82;3.53;;;;;;;;;;1029513;28;20594;-74
2023/04/27 00:02:46;;;;;;;4.93;3.17;;;;;;;;;;1029056;28;20029;-74
2023/04/27 00:03:16;;;;;;;6.95;2.17;;;;;;;;;;1032569;28;20022;-74
2023/04/27 00:03:47;;;;;;;7.45;3.83;;;;;;;;;;1032167;28;20026;-74
2023/04/27 00:04:19;;;;;;;3.00;2.35;;;;;;;;;;1032126;28;20083;-73
2023/04/27 00:04:50;;;;;;;6.72;2.67;;;;;;;;;;1032252;28;20026;-75
2023/04/27 00:05:21;;;;;;;3.95;2.25;;;;;;;;;;1031189;28;20026;-75
2023/04/27 00:05:51;;;;;;;2.72;0.98;;;;;;;;;;1032144;28;20030;-73
2023/04/27 00:06:22;;;;;;;2.78;1.85;;;;;;;;;;1032334;28;20109;-74
2023/04/27 00:06:52;;;;;;;1.52;1.27;;;;;;;;;;1031807;28;20109;-73
2023/04/27 00:07:23;;;;;;;9.73;3.10;;;;;;;;;;1031956;28;20026;-74
2023/04/27 00:07:53;;;;;;;5.47;3.00;;;;;;;;;;1031911;28;20065;-74
2023/04/27 00:08:23;;;;;;;3.38;1.85;;;;;;;;;;1031773;28;20030;-74
2023/04/27 00:08:54;;;;;;;2.15;1.70;;;;;;;;;;1025002;28;20113;-73
2023/04/27 00:09:25;;;;;;;4.90;1.92;;;;;;;;;;1025828;28;20091;-74
2023/04/27 00:09:55;;;;;;;4.63;2.20;;;;;;;;;;1025922;28;20030;-74
2023/04/27 00:10:26;;;;;;;6.35;3.45;;;;;;;;;;1030238;28;20490;-74
2023/04/27 00:10:56;;;;;;;5.13;2.63;;;;;;;;;;1032104;28;20026;-75
2023/04/27 00:11:27;;;;;;;8.68;2.72;;;;;;;;;;1032486;28;20065;-73
2023/04/27 00:11:57;;;;;;;3.75;1.27;;;;;;;;;;1031928;28;20381;-74
2023/04/27 00:12:27;;;;;;;28.40;2.15;;;;;;;;;;1032289;28;20065;-73
2023/04/27 00:12:58;;;;;;;6.32;2.38;;;;;;;;;;1032176;28;20022;-74
2023/04/27 00:13:28;;;;;;;2.88;1.27;;;;;;;;;;1032293;28;20076;-73
2023/04/27 00:13:59;;;;;;;9.52;1.58;;;;;;;;;;1031747;28;20526;-74
2023/04/27 00:14:29;;;;;;;9.27;2.78;;;;;;;;;;1032083;28;20049;-74
2023/04/27 00:15:00;;;;;;;1.35;0.88;;;;;;;;;;1031887;28;20030;-74
2023/04/27 00:15:30;;;;;;;4.63;2.25;;;;;;;;;;1032081;28;20097;-73
2023/04/27 00:16:02;;;;;;;3.33;1.70;;;;;;;;;;1032336;28;20394;-73
2023/04/27 00:16:33;;;;;;;3.58;3.05;;;;;;;;;;1032281;28;20026;-74
2023/04/27 00:17:03;;;;;;;1.45;1.33;;;;;;;;;;1032212;28;20512;-74
2023/04/27 00:17:33;;;;;;;3.17;1.77;;;;;;;;;;1031142;28;20084;-74
2023/04/27 00:18:04;;;;;;;5.10;0.93;;;;;;;;;;1032130;28;20022;-74
2023/04/27 00:18:35;;;;;;;2.65;1.00;;;;;;;;;;1032174;28;20036;-73
2023/04/27 00:19:07;;;;;;;11.80;1.38;;;;;;;;;;1027791;28;20030;-73
2023/04/27 00:19:40;;;;;;;4.57;1.85;;;;;;;;;;1027830;28;20031;-74
2023/04/27 00:20:11;;;;;;;2.58;1.35;;;;;;;;;;1027979;28;20027;-74
2023/04/27 00:20:41;;;;;;;1.65;1.55;;;;;;;;;;1028462;28;20019;-73
2023/04/27 00:21:12;;;;;;;3.85;1.58;;;;;;;;;;1032139;28;20555;-74
2023/04/27 00:21:42;;;;;;;2.45;0.93;;;;;;;;;;1031811;28;20073;-73
2023/04/27 00:22:13;;;;;;;13.70;2.38;;;;;;;;;;1031940;28;20188;-73
2023/04/27 00:22:43;;;;;;;2.63;1.88;;;;;;;;;;1027952;28;20049;-74
2023/04/27 00:23:14;;;;;;;1.77;1.20;;;;;;;;;;1028122;28;20030;-74
2023/04/27 00:23:44;;;;;;;5.65;1.45;;;;;;;;;;1027895;28;20027;-74
2023/04/27 00:24:15;;;;;;;5.15;2.10;;;;;;;;;;1032378;28;20062;-74
2023/04/27 00:24:45;;;;;;;1.55;1.00;;;;;;;;;;1031833;28;20741;-74
2023/04/27 00:25:16;;;;;;;2.35;2.13;;;;;;;;;;1032148;28;20022;-73
2023/04/27 00:25:46;;;;;;;8.98;2.03;;;;;;;;;;1031054;28;20089;-74
2023/04/27 00:26:17;;;;;;;2.03;1.88;;;;;;;;;;1031952;28;20022;-74
2023/04/27 00:26:47;;;;;;;3.65;2.15;;;;;;;;;;1031391;28;20023;-74
2023/04/27 00:27:18;;;;;;;3.67;1.88;;;;;;;;;;1031964;28;20026;-73
2023/04/27 00:27:48;;;;;;;2.08;1.58;;;;;;;;;;1031833;28;20026;-73
2023/04/27 00:28:19;;;;;;;7.18;1.23;;;;;;;;;;1031867;28;20036;-74
2023/04/27 00:28:49;;;;;;;2.65;1.52;;;;;;;;;;1031812;28;20025;-73
2023/04/27 00:29:20;;;;;;;1.92;1.13;;;;;;;;;;1031479;28;20029;-74
2023/04/27 00:29:50;;;;;;;1.58;1.48;;;;;;;;;;1031426;28;20569;-73
2023/04/27 00:30:21;;;;;;;1.55;1.10;;;;;;;;;;1027962;28;20026;-74
2023/04/27 00:30:53;;;;;;;3.97;1.80;;;;;;;;;;1027772;28;20408;-73
2023/04/27 00:31:23;;;;;;;4.28;2.30;;;;;;;;;;1032112;28;20521;-74
2023/04/27 00:31:54;;;;;;;2.28;1.90;;;;;;;;;;1031932;28;20165;-74
2023/04/27 00:32:25;;;;;;;6.28;1.27;;;;;;;;;;1032328;28;20031;-74
2023/04/27 00:32:55;;;;;;;9.82;1.42;;;;;;;;;;1031751;28;20565;-74
2023/04/27 00:33:26;;;;;;;16.00;3.30;;;;;;;;;;1031866;28;20484;-73
2023/04/27 00:33:56;;;;;;;5.85;2.88;;;;;;;;;;1031745;28;20429;-73
2023/04/27 00:34:26;;;;;;;4.85;2.08;;;;;;;;;;1031997;28;20030;-73
2023/04/27 00:34:57;;;;;;;2.55;2.35;;;;;;;;;;1032282;28;20157;-74
2023/04/27 00:35:27;;;;;;;1.25;1.15;;;;;;;;;;1031764;28;20054;-74
2023/04/27 00:35:59;;;;;;;3.28;1.83;;;;;;;;;;1031667;28;20037;-73
2023/04/27 00:36:32;;;;;;;2.75;2.42;;;;;;;;;;1031987;28;20029;-74
2023/04/27 00:37:02;;;;;;;5.00;3.28;;;;;;;;;;1031972;28;20077;-73
2023/04/27 00:37:33;;;;;;;4.80;3.17;;;;;;;;;;1030975;28;20037;-74
2023/04/27 00:38:03;;;;;;;6.30;2.75;;;;;;;;;;1031955;28;20018;-75
2023/04/27 00:38:34;;;;;;;3.80;2.53;;;;;;;;;;1031346;28;20022;-74
2023/04/27 00:39:05;;;;;;;4.80;2.75;;;;;;;;;;1032066;28;20029;-74
2023/04/27 00:39:35;;;;;;;5.68;2.72;;;;;;;;;;1030936;28;20026;-75
2023/04/27 00:40:06;;;;;;;7.50;4.38;;;;;;;;;;1027381;28;20058;-73
2023/04/27 00:40:37;;;;;;;1.45;1.27;;;;;;;;;;1026450;28;20023;-74
2023/04/27 00:41:08;;;;;;;14.23;2.90;;;;;;;;;;1027894;28;20054;-74
2023/04/27 00:41:38;;;;;;;3.15;2.75;;;;;;;;;;1028047;28;20110;-75
2023/04/27 00:42:12;;;;;;;4.10;2.00;;;;;;;;;;1031935;28;20026;-75
2023/04/27 00:42:43;;;;;;;15.30;3.42;;;;;;;;;;1029671;28;20390;-73
2023/04/27 00:43:13;;;;;;;8.63;3.15;;;;;;;;;;1029784;28;20026;-73
2023/04/27 00:43:45;;;;;;;18.50;2.72;;;;;;;;;;1027622;28;20121;-73
2023/04/27 00:44:25;;;;;;;3.80;3.03;;;;;;;;;;1027885;28;20026;-74
2023/04/27 00:44:56;;;;;;;10.27;2.65;;;;;;;;;;1029461;28;20022;-73
2023/04/27 00:45:27;;;;;;;6.35;2.70;;;;;;;;;;1030788;28;20070;-75
2023/04/27 00:45:58;;;;;;;14.07;4.35;;;;;;;;;;1031851;28;20057;-75
2023/04/27 00:46:28;;;;;;;4.68;2.28;;;;;;;;;;1031873;28;20075;-74
2023/04/27 00:46:59;;;;;;;3.92;2.53;;;;;;;;;;1032097;28;20044;-74
2023/04/27 00:47:29;;;;;;;5.25;2.80;;;;;;;;;;1031522;28;20105;-74
2023/04/27 00:48:00;;;;;;;3.38;1.58;;;;;;;;;;1031748;28;20057;-74
2023/04/27 00:48:30;;;;;;;7.20;2.20;;;;;;;;;;1031173;28;20542;-76
2023/04/27 00:49:01;;;;;;;6.25;3.63;;;;;;;;;;1031422;28;20223;-75
2023/04/27 00:49:32;;;;;;;2.58;1.60;;;;;;;;;;1031851;28;20030;-73
2023/04/27 00:50:02;;;;;;;8.02;2.72;;;;;;;;;;1031693;28;20060;-75
2023/04/27 00:50:33;;;;;;;8.20;3.88;;;;;;;;;;1031865;28;20034;-75
2023/04/27 00:51:04;;;;;;;4.38;3.30;;;;;;;;;;1032203;28;20424;-75
2023/04/27 00:51:35;;;;;;;6.20;2.03;;;;;;;;;;1031897;28;20030;-74
2023/04/27 00:52:05;;;;;;;5.70;2.72;;;;;;;;;;1031998;28;20348;-75
2023/04/27 00:52:36;;;;;;;3.65;1.70;;;;;;;;;;1032010;28;20486;-76
2023/04/27 00:53:06;;;;;;;2.95;1.33;;;;;;;;;;1032047;28;20422;-75
2023/04/27 00:53:37;;;;;;;10.50;1.65;;;;;;;;;;1031777;28;20014;-74
2023/04/27 00:54:08;;;;;;;6.25;2.15;;;;;;;;;;1032050;28;20046;-76
2023/04/27 00:54:38;;;;;;;2.25;1.90;;;;;;;;;;1031756;28;20034;-75
2023/04/27 00:55:09;;;;;;;10.68;1.67;;;;;;;;;;1031128;28;20414;-76
2023/04/27 00:55:40;;;;;;;2.05;1.50;;;;;;;;;;1031122;28;20073;-76
2023/04/27 00:56:11;;;;;;;8.98;1.83;;;;;;;;;;1031831;28;20033;-76
2023/04/27 00:56:42;;;;;;;3.85;2.15;;;;;;;;;;1032204;28;20034;-76
2023/04/27 00:57:13;;;;;;;3.50;1.15;;;;;;;;;;1029888;28;20090;-77
2023/04/27 00:57:43;;;;;;;2.45;1.58;;;;;;;;;;1029492;28;20030;-76
2023/04/27 00:58:14;;;;;;;0.57;0.57;;;;;;;;;;1029518;28;20375;-76
2023/04/27 00:58:44;;;;;;;4.82;2.90;;;;;;;;;;1031596;28;20461;-76
2023/04/27 00:59:15;;;;;;;8.13;3.47;;;;;;;;;;1032052;28;20026;-77
2023/04/27 00:59:45;;;;;;;9.63;3.75;;;;;;;;;;1031912;28;20034;-76
2023/04/27 01:00:16;;;;;;;4.50;2.35;;;;;;;;;;1031958;28;20030;-77
2023/04/27 01:00:47;;;;;;;5.35;2.15;;;;;;;;;;1031477;28;20540;-77
2023/04/27 01:01:19;;;;;;;2.42;1.23;;;;;;;;;;1031775;28;20568;-76
2023/04/27 01:01:50;;;;;;;7.05;2.72;;;;;;;;;;1031574;28;20026;-77
2023/04/27 01:02:20;;;;;;;21.35;1.10;;;;;;;;;;1031639;28;20451;-76
2023/04/27 01:02:52;;;;;;;2.88;0.70;;;;;;;;;;1027761;28;20078;-77
2023/04/27 01:03:23;;;;;;;15.88;7.35;;;;;;;;;;1026354;28;20026;-76
2023/04/27 01:03:54;;;;;;;5.28;3.53;;;;;;;;;;1029998;28;20069;-76
2023/04/27 01:04:24;;;;;;;2.42;1.30;;;;;;;;;;1029824;28;20403;-76
2023/04/27 01:04:55;;;;;;;6.30;3.42;;;;;;;;;;1025110;28;20030;-75
2023/04/27 01:05:25;;;;;;;7.05;1.58;;;;;;;;;;1027667;28;20375;-75
2023/04/27 01:05:58;;;;;;;3.67;2.08;;;;;;;;;;1027659;28;20486;-75
2023/04/27 01:06:29;;;;;;;1.40;0.73;;;;;;;;;;1028024;28;20030;-76
2023/04/27 01:07:01;;;;;;;8.00;2.38;;;;;;;;;;1031660;28;20054;-75
2023/04/27 01:07:32;;;;;;;3.75;1.77;;;;;;;;;;1031540;28;20029;-75
2023/04/27 01:08:02;;;;;;;25.23;2.00;;;;;;;;;;1029865;28;20022;-75
2023/04/27 01:08:33;;;;;;;1.73;1.00;;;;;;;;;;1025334;28;20031;-75
2023/04/27 01:09:04;;;;;;;2.40;1.75;;;;;;;;;;1025481;28;20020;-75
2023/04/27 01:09:34;;;;;;;6.22;4.07;;;;;;;;;;1025470;28;20439;-76
2023/04/27 01:10:06;;;;;;;13.20;2.25;;;;;;;;;;1026520;28;20029;-75
2023/04/27 01:10:36;;;;;;;13.45;5.18;;;;;;;;;;1027380;28;20041;-75
2023/04/27 01:11:07;;;;;;;14.20;6.80;;;;;;;;;;1027659;28;20095;-76
2023/04/27 01:11:37;;;;;;;17.40;8.38;;;;;;;;;;1027434;28;20037;-75
2023/04/27 01:12:08;;;;;;;13.55;6.30;;;;;;;;;;1023688;28;20031;-76
2023/04/27 01:12:38;;;;;;;16.08;8.23;;;;;;;;;;1027608;28;20027;-75
2023/04/27 01:13:09;;;;;;;27.80;11.68;;;;;;;;;;1032025;28;20018;-75
2023/04/27 01:13:39;;;;;;;28.80;10.85;;;;;;;;;;1030617;28;20022;-76
2023/04/27 01:14:10;;;;;;;28.40;11.68;;;;;;;;;;1031649;28;20025;-75
2023/04/27 01:14:40;;;;;;;23.17;10.13;;;;;;;;;;1027789;28;20031;-76
2023/04/27 01:15:11;;;;;;;19.30;9.52;;;;;;;;;;1027767;28;20018;-76
2023/04/27 01:15:41;;;;;;;28.63;10.10;;;;;;;;;;1027494;28;20026;-75
2023/04/27 01:16:12;;;;;;;27.63;7.80;;;;;;;;;;1027669;28;20166;-75
2023/04/27 01:16:43;;;;;;;25.08;8.48;;;;;;;;;;1031592;28;20033;-77
2023/04/27 01:17:13;;;;;;;26.50;10.63;;;;;;;;;;1027794;28;20023;-77
2023/04/27 01:17:45;;;;;;;23.45;9.65;;;;;;;;;;1027519;28;20042;-76
2023/04/27 01:18:15;;;;;;;29.50;11.77;;;;;;;;;;1030848;28;20112;-77
2023/04/27 01:18:46;;;;;;;45.17;10.88;;;;;;;;;;1026775;28;20018;-77
2023/04/27 01:19:16;;;;;;;19.00;6.70;;;;;;;;;;1027247;28;20073;-75
2023/04/27 01:19:47;;;;;;;33.22;5.43;;;;;;;;;;1027414;28;20338;-76
2023/04/27 01:20:19;;;;;;;17.77;7.72;;;;;;;;;;1023811;28;20058;-76
2023/04/27 01:20:49;;;;;;;17.30;7.88;;;;;;;;;;1027513;28;20077;-75
2023/04/27 01:21:20;;;;;;;16.60;9.05;;;;;;;;;;1027382;28;20494;-75
2023/04/27 01:21:50;;;;;;;16.75;9.43;;;;;;;;;;1026717;28;20026;-76
2023/04/27 01:22:21;;;;;;;7.65;4.20;;;;;;;;;;1031421;28;20027;-75
2023/04/27 01:22:52;;;;;;;10.10;3.33;;;;;;;;;;1031939;28;20080;-75
2023/04/27 01:23:22;;;;;;;13.13;4.60;;;;;;;;;;1030638;28;20410;-75
2023/04/27 01:23:53;;;;;;;11.25;4.70;;;;;;;;;;1031803;28;20117;-74
2023/04/27 01:24:24;;;;;;;8.60;3.22;;;;;;;;;;1032433;28;20481;-75
2023/04/27 01:24:54;;;;;;;5.85;2.67;;;;;;;;;;1029979;28;20427;-76
2023/04/27 01:25:25;;;;;;;4.18;2.60;;;;;;;;;;1030507;28;20520;-75
2023/04/27 01:25:55;;;;;;;5.55;3.35;;;;;;;;;;1030816;28;20026;-75
2023/04/27 01:26:26;;;;;;;9.07;4.65;;;;;;;;;;1030276;28;20018;-74
2023/04/27 01:26:57;;;;;;;10.00;4.63;;;;;;;;;;1028150;28;20027;-75
2023/04/27 01:27:27;;;;;;;8.38;3.88;;;;;;;;;;1030518;28;20532;-76
2023/04/27 01:27:58;;;;;;;5.35;3.13;;;;;;;;;;1029752;28;20026;-75
2023/04/27 01:28:29;;;;;;;28.67;4.22;;;;;;;;;;1028244;28;20030;-73
2023/04/27 01:28:59;;;;;;;7.60;4.05;;;;;;;;;;1029072;28;20486;-75
2023/04/27 01:29:30;;;;;;;28.85;5.70;;;;;;;;;;1030719;28;20038;-75
2023/04/27 01:30:00;;;;;;;9.02;5.03;;;;;;;;;;1024806;28;20354;-74
2023/04/27 01:30:31;;;;;;;32.53;4.38;;;;;;;;;;1025119;28;20118;-76
2023/04/27 01:31:02;;;;;;;9.88;5.32;;;;;;;;;;1024013;28;20030;-76
2023/04/27 01:31:32;;;;;;;12.88;3.25;;;;;;;;;;1022022;28;20031;-75
2023/04/27 01:32:03;;;;;;;3.13;2.30;;;;;;;;;;1025381;28;20031;-75
2023/04/27 01:32:35;;;;;;;8.18;4.18;;;;;;;;;;1023593;28;20095;-75
2023/04/27 01:33:06;;;;;;;7.68;3.88;;;;;;;;;;1023534;28;20114;-75
2023/04/27 01:33:37;;;;;;;9.57;4.55;;;;;;;;;;1021905;28;20089;-74
2023/04/27 01:34:07;;;;;;;7.32;3.42;;;;;;;;;;1022314;28;20031;-75
2023/04/27 01:34:38;;;;;;;10.18;3.05;;;;;;;;;;1028142;28;20134;-73
2023/04/27 01:35:09;;;;;;;6.00;2.88;;;;;;;;;;1026099;28;20030;-75
2023/04/27 01:35:40;;;;;;;5.20;2.83;;;;;;;;;;1025171;28;20027;-76
2023/04/27 01:36:11;;;;;;;7.72;3.13;;;;;;;;;;1024447;28;20031;-75
2023/04/27 01:36:41;;;;;;;8.45;4.40;;;;;;;;;;1027663;28;20031;-76
2023/04/27 01:37:12;;;;;;;8.13;4.38;;;;;;;;;;1030385;28;20058;-76
2023/04/27 01:37:43;;;;;;;20.40;3.28;;;;;;;;;;1030809;28;20026;-75
2023/04/27 01:38:14;;;;;;;8.95;4.07;;;;;;;;;;1029762;28;20022;-76
2023/04/27 01:38:44;;;;;;;10.30;3.83;;;;;;;;;;1030986;28;20112;-76
2023/04/27 01:39:15;;;;;;;19.00;2.90;;;;;;;;;;1025066;28;20023;-76
2023/04/27 01:39:46;;;;;;;8.13;3.08;;;;;;;;;;1021173;28;20031;-75
2023/04/27 01:40:16;;;;;;;16.20;3.83;;;;;;;;;;1021680;28;20086;-75
2023/04/27 01:40:47;;;;;;;7.70;3.50;;;;;;;;;;1018763;29;20034;-74
2023/04/27 01:41:17;;;;;;;19.38;2.72;;;;;;;;;;1022839;28;20023;-74
2023/04/27 01:41:48;;;;;;;3.35;2.35;;;;;;;;;;1024608;28;20037;-75
2023/04/27 01:42:18;;;;;;;11.75;2.30;;;;;;;;;;1020565;28;20038;-75
2023/04/27 01:42:49;;;;;;;9.68;2.08;;;;;;;;;;1026450;28;20031;-75
2023/04/27 01:43:20;;;;;;;3.58;2.00;;;;;;;;;;1025211;28;20061;-76
2023/04/27 01:43:51;;;;;;;2.95;2.58;;;;;;;;;;1024062;28;20047;-76
2023/04/27 01:44:22;;;;;;;7.50;2.80;;;;;;;;;;1029168;28;20023;-75
2023/04/27 01:44:53;;;;;;;11.48;2.20;;;;;;;;;;1024382;28;20033;-75
2023/04/27 01:45:24;;;;;;;4.25;2.63;;;;;;;;;;1027368;28;20038;-75
2023/04/27 01:45:54;;;;;;;5.97;2.30;;;;;;;;;;1021340;28;20074;-77
2023/04/27 01:46:25;;;;;;;16.33;2.85;;;;;;;;;;1023832;28;20035;-76
2023/04/27 01:46:56;;;;;;;5.53;2.60;;;;;;;;;;1023445;28;20127;-76
2023/04/27 01:47:26;;;;;;;5.45;3.13;;;;;;;;;;1021373;28;20063;-75
2023/04/27 01:47:57;;;;;;;11.88;3.38;;;;;;;;;;1025714;28;20027;-76
2023/04/27 01:48:27;;;;;;;14.45;4.47;;;;;;;;;;1026647;28;20103;-75
2023/04/27 01:48:58;;;;;;;7.72;2.67;;;;;;;;;;1030929;28;20026;-76
2023/04/27 01:49:28;;;;;;;6.28;2.60;;;;;;;;;;1030609;28;20037;-76
2023/04/27 01:49:59;;;;;;;11.63;4.32;;;;;;;;;;1029975;28;20033;-77
2023/04/27 01:50:29;;;;;;;8.30;4.18;;;;;;;;;;1030392;28;20117;-76
2023/04/27 01:51:00;;;;;;;11.95;4.75;;;;;;;;;;1030237;28;20033;-75
2023/04/27 01:51:31;;;;;;;17.67;4.97;;;;;;;;;;1029948;28;20030;-75
2023/04/27 01:52:02;;;;;;;27.33;7.40;;;;;;;;;;1028581;28;20034;-75
2023/04/27 01:52:32;;;;;;;21.23;7.70;;;;;;;;;;1024037;28;20027;-75
2023/04/27 01:53:03;;;;;;;5.28;4.32;;;;;;;;;;1024245;28;20070;-76
2023/04/27 01:53:33;;;;;;;6.35;2.50;;;;;;;;;;1030214;28;20113;-75
2023/04/27 01:54:05;;;;;;;4.72;1.42;;;;;;;;;;1029166;28;20218;-76
2023/04/27 01:54:35;;;;;;;16.40;2.40;;;;;;;;;;1024681;28;20023;-75
2023/04/27 01:55:06;;;;;;;4.55;2.35;;;;;;;;;;1023680;28;20034;-76
2023/04/27 01:55:37;;;;;;;8.10;3.83;;;;;;;;;;1026282;28;20027;-76
2023/04/27 01:56:09;;;;;;;7.68;4.07;;;;;;;;;;1021434;28;20613;-76
2023/04/27 01:56:39;;;;;;;4.97;3.50;;;;;;;;;;1026323;28;20033;-76
2023/04/27 01:57:09;;;;;;;8.05;3.20;;;;;;;;;;1025781;28;20022;-75
2023/04/27 01:57:40;;;;;;;4.10;1.23;;;;;;;;;;1026025;28;20159;-76
2023/04/27 01:58:10;;;;;;;14.30;2.15;;;;;;;;;;1029029;28;20435;-75
2023/04/27 01:58:41;;;;;;;5.20;1.25;;;;;;;;;;1030642;28;20025;-76
2023/04/27 01:59:11;;;;;;;7.68;3.42;;;;;;;;;;1025412;28;20062;-76
2023/04/27 01:59:42;;;;;;;2.13;1.63;;;;;;;;;;1027881;28;20506;-76
2023/04/27 02:00:13;;;;;;;22.98;3.70;;;;;;;;;;1028890;28;20026;-75
2023/04/27 02:00:43;;;;;;;5.93;2.92;;;;;;;;;;1025926;28;20114;-76
2023/04/27 02:01:14;;;;;;;9.02;4.50;;;;;;;;;;1025912;28;20486;-75
2023/04/27 02:01:44;;;;;;;10.77;3.63;;;;;;;;;;1026411;28;20069;-75
2023/04/27 02:02:15;;;;;;;3.28;1.77;;;;;;;;;;1027207;28;20050;-75
2023/04/27 02:02:45;;;;;;;1.00;0.68;;;;;;;;;;1026670;28;20033;-75
2023/04/27 02:03:16;;;;;;;12.13;3.55;;;;;;;;;;1031429;28;20026;-75
2023/04/27 02:03:46;;;;;;;5.18;2.70;;;;;;;;;;1030186;28;20030;-75
2023/04/27 02:04:17;;;;;;;2.40;1.35;;;;;;;;;;1029885;28;20038;-75
2023/04/27 02:04:47;;;;;;;2.17;1.05;;;;;;;;;;1025278;28;20061;-76
2023/04/27 02:05:18;;;;;;;9.43;1.20;;;;;;;;;;1022796;28;20034;-75
2023/04/27 02:05:49;;;;;;;1.17;1.08;;;;;;;;;;1024978;28;20021;-76
2023/04/27 02:06:26;;;;;;;8.02;1.20;;;;;;;;;;1025854;28;20018;-76
2023/04/27 02:06:57;;;;;;;17.60;1.38;;;;;;;;;;1025522;28;20467;-76
2023/04/27 02:07:27;;;;;;;1.88;1.05;;;;;;;;;;1027862;28;20114;-76
2023/04/27 02:07:58;;;;;;;5.05;0.77;;;;;;;;;;1028317;28;20022;-75
2023/04/27 02:08:28;;;;;;;1.40;1.13;;;;;;;;;;1029363;28;20450;-75
2023/04/27 02:08:59;;;;;;;2.10;0.68;;;;;;;;;;1028248;28;20129;-75
2023/04/27 02:09:29;;;;;;;3.28;1.35;;;;;;;;;;1029368;28;20576;-76
2023/04/27 02:10:00;;;;;;;2.17;1.23;;;;;;;;;;1029747;28;20029;-75
2023/04/27 02:10:30;;;;;;;5.28;1.35;;;;;;;;;;1029859;28;20026;-75
2023/04/27 02:11:01;;;;;;;1.50;1.17;;;;;;;;;;1029827;28;20465;-76
2023/04/27 02:11:31;;;;;;;3.17;2.13;;;;;;;;;;1031191;28;20022;-77
2023/04/27 02:12:02;;;;;;;1.63;0.57;;;;;;;;;;1028593;28;20113;-77
2023/04/27 02:12:33;;;;;;;1.05;0.95;;;;;;;;;;1027299;28;20026;-75
2023/04/27 02:13:03;;;;;;;12.75;0.90;;;;;;;;;;1020299;28;20035;-74
2023/04/27 02:13:37;;;;;;;6.50;1.40;;;;;;;;;;1024079;28;20029;-76
2023/04/27 02:14:08;;;;;;;1.65;1.55;;;;;;;;;;1022885;28;20039;-77
2023/04/27 02:14:41;;;;;;;0.45;0.35;;;;;;;;;;1025121;28;20383;-76
2023/04/27 02:15:13;;;;;;;1.63;1.52;;;;;;;;;;1030608;28;20060;-76
2023/04/27 02:15:44;;;;;;;2.38;1.08;;;;;;;;;;1028935;28;20030;-76
2023/04/27 02:16:14;;;;;;;1.98;1.65;;;;;;;;;;1030382;28;20030;-76
2023/04/27 02:16:45;;;;;;;1.20;1.10;;;;;;;;;;1029933;28;20030;-75
2023/04/27 02:17:15;;;;;;;0.22;0.20;;;;;;;;;;1029818;28;20029;-75
2023/04/27 02:17:46;;;;;;;12.73;1.27;;;;;;;;;;1025863;28;20027;-75
2023/04/27 02:18:17;;;;;;;4.00;0.70;;;;;;;;;;1026063;28;20070;-75
2023/04/27 02:18:48;;;;;;;1.60;0.95;;;;;;;;;;1025694;28;20086;-75
2023/04/27 02:19:18;;;;;;;2.35;1.02;;;;;;;;;;1029758;28;20105;-77
2023/04/27 02:19:49;;;;;;;1.05;0.80;;;;;;;;;;1029551;28;20394;-76
2023/04/27 02:20:19;;;;;;;4.07;1.33;;;;;;;;;;1026800;28;20094;-77
2023/04/27 02:20:50;;;;;;;0.90;0.75;;;;;;;;;;1025579;28;20042;-78
2023/04/27 02:21:27;;;;;;;1.15;0.77;;;;;;;;;;1022177;28;20091;-79
2023/04/27 02:21:58;;;;;;;2.55;1.55;;;;;;;;;;1022213;28;20058;-77
2023/04/27 02:22:28;;;;;;;2.63;1.20;;;;;;;;;;1026583;28;20495;-77
2023/04/27 02:22:59;;;;;;;3.50;0.82;;;;;;;;;;1027359;28;20072;-76
2023/04/27 02:23:30;;;;;;;1.52;1.00;;;;;;;;;;1031010;28;20030;-76
2023/04/27 02:24:00;;;;;;;3.65;1.85;;;;;;;;;;1030360;28;20023;-76
2023/04/27 02:24:31;;;;;;;2.03;1.45;;;;;;;;;;1030509;28;20110;-76
2023/04/27 02:25:02;;;;;;;4.38;1.02;;;;;;;;;;1028120;28;21308;-77
2023/04/27 02:25:35;;;;;;;1.20;0.85;;;;;;;;;;1029032;28;20429;-76
2023/04/27 02:26:05;;;;;;;9.30;2.80;;;;;;;;;;1028605;28;20356;-75
2023/04/27 02:26:36;;;;;;;7.57;1.27;;;;;;;;;;1025823;28;20030;-76
2023/04/27 02:27:06;;;;;;;5.13;1.98;;;;;;;;;;1025312;28;20037;-76
2023/04/27 02:27:37;;;;;;;1.00;0.77;;;;;;;;;;1026389;28;20465;-75
2023/04/27 02:28:08;;;;;;;3.50;0.90;;;;;;;;;;1029850;28;20441;-75
2023/04/27 02:28:39;;;;;;;0.90;0.80;;;;;;;;;;1030920;28;20088;-76
2023/04/27 02:29:10;;;;;;;7.63;1.48;;;;;;;;;;1029338;28;20109;-77
2023/04/27 02:29:40;;;;;;;5.95;2.00;;;;;;;;;;1028658;28;20018;-76
2023/04/27 02:30:11;;;;;;;1.65;1.48;;;;;;;;;;1028346;28;20049;-77
2023/04/27 02:30:41;;;;;;;1.98;0.77;;;;;;;;;;1028546;28;20065;-77
2023/04/27 02:31:12;;;;;;;1.27;1.10;;;;;;;;;;1029685;28;20034;-75
2023/04/27 02:31:43;;;;;;;3.22;1.73;;;;;;;;;;1024667;28;20027;-76
2023/04/27 02:32:14;;;;;;;5.03;1.67;;;;;;;;;;1025004;28;20117;-74
2023/04/27 02:32:45;;;;;;;3.10;2.50;;;;;;;;;;1022020;28;20403;-76
2023/04/27 02:33:16;;;;;;;4.75;1.77;;;;;;;;;;1019286;29;20027;-76
2023/04/27 02:33:46;;;;;;;1.38;1.13;;;;;;;;;;1020455;28;20467;-75
2023/04/27 02:34:17;;;;;;;2.30;1.60;;;;;;;;;;1021990;28;20037;-76
2023/04/27 02:34:47;;;;;;;2.15;1.27;;;;;;;;;;1022110;28;20035;-76
2023/04/27 02:35:18;;;;;;;1.13;0.93;;;;;;;;;;1026372;28;20026;-77
2023/04/27 02:35:48;;;;;;;4.63;1.95;;;;;;;;;;1026086;28;20564;-77
2023/04/27 02:36:19;;;;;;;4.18;1.92;;;;;;;;;;1026950;28;20031;-77
2023/04/27 02:36:49;;;;;;;3.90;1.23;;;;;;;;;;1029739;28;20514;-78
2023/04/27 02:37:20;;;;;;;4.57;1.73;;;;;;;;;;1030232;28;20067;-76
2023/04/27 02:37:50;;;;;;;7.80;2.47;;;;;;;;;;1029925;28;20531;-77
2023/04/27 02:38:22;;;;;;;5.47;1.15;;;;;;;;;;1028030;28;20030;-77
2023/04/27 02:38:54;;;;;;;5.93;2.30;;;;;;;;;;1031092;28;20093;-75
2023/04/27 02:39:25;;;;;;;2.15;1.27;;;;;;;;;;1029521;28;20018;-76
2023/04/27 02:39:56;;;;;;;4.90;2.53;;;;;;;;;;1027835;28;20026;-76
2023/04/27 02:40:29;;;;;;;2.00;1.70;;;;;;;;;;1028898;28;20533;-76
2023/04/27 02:40:59;;;;;;;2.78;1.42;;;;;;;;;;1027010;28;20034;-75
2023/04/27 02:41:30;;;;;;;4.78;1.73;;;;;;;;;;1024878;28;20054;-76
2023/04/27 02:42:02;;;;;;;5.72;1.90;;;;;;;;;;1025510;28;20036;-77
2023/04/27 02:42:32;;;;;;;3.88;1.48;;;;;;;;;;1030257;28;20500;-78
2023/04/27 02:43:04;;;;;;;3.60;1.63;;;;;;;;;;1028628;28;20041;-77
2023/04/27 02:43:35;;;;;;;2.05;1.10;;;;;;;;;;1027989;28;20030;-76
2023/04/27 02:44:05;;;;;;;7.75;2.80;;;;;;;;;;1027460;28;20529;-75
2023/04/27 02:44:36;;;;;;;4.35;1.60;;;;;;;;;;1028445;28;20042;-75
2023/04/27 02:45:07;;;;;;;7.85;2.45;;;;;;;;;;1029576;28;20030;-75
2023/04/27 02:45:38;;;;;;;3.05;1.70;;;;;;;;;;1029713;28;20033;-76
2023/04/27 02:46:08;;;;;;;1.67;0.77;;;;;;;;;;1028780;28;20038;-75
2023/04/27 02:46:39;;;;;;;2.83;1.73;;;;;;;;;;1030524;28;20389;-76
2023/04/27 02:47:10;;;;;;;2.55;1.48;;;;;;;;;;1029793;28;20034;-76
2023/04/27 02:47:40;;;;;;;3.17;1.80;;;;;;;;;;1028122;28;20033;-74
2023/04/27 02:48:11;;;;;;;35.55;3.38;;;;;;;;;;1028463;28;20076;-73
2023/04/27 02:48:41;;;;;;;8.30;2.00;;;;;;;;;;1023015;28;21525;-73
2023/04/27 02:49:12;;;;;;;4.13;1.95;;;;;;;;;;1024870;28;20030;-76
2023/04/27 02:49:42;;;;;;;3.10;2.33;;;;;;;;;;1023145;28;20035;-76
2023/04/27 02:50:13;;;;;;;4.53;2.70;;;;;;;;;;1024256;28;20058;-74
2023/04/27 02:50:44;;;;;;;3.00;1.55;;;;;;;;;;1026704;28;20030;-75
2023/04/27 02:51:14;;;;;;;4.90;2.15;;;;;;;;;;1028258;28;20438;-74
2023/04/27 02:51:45;;;;;;;9.27;5.03;;;;;;;;;;1029047;28;20026;-75
2023/04/27 02:52:15;;;;;;;2.00;1.35;;;;;;;;;;1028418;28;20031;-75
2023/04/27 02:52:46;;;;;;;14.25;8.02;;;;;;;;;;1025806;28;20026;-76
2023/04/27 02:53:16;;;;;;;8.20;2.78;;;;;;;;;;1025343;28;20617;-77
2023/04/27 02:53:47;;;;;;;4.05;1.50;;;;;;;;;;1027638;28;20027;-76
2023/04/27 02:54:18;;;;;;;4.55;3.40;;;;;;;;;;1026307;28;20066;-76
2023/04/27 02:54:48;;;;;;;3.38;2.17;;;;;;;;;;1028139;28;20526;-78
2023/04/27 02:55:20;;;;;;;3.47;1.38;;;;;;;;;;1031001;28;20110;-77
2023/04/27 02:55:50;;;;;;;3.03;1.50;;;;;;;;;;1030433;28;20037;-77
2023/04/27 02:56:21;;;;;;;3.25;1.88;;;;;;;;;;1029777;28;20086;-77
2023/04/27 02:56:51;;;;;;;2.40;1.38;;;;;;;;;;1030670;28;20046;-77
2023/04/27 02:57:22;;;;;;;2.72;2.13;;;;;;;;;;1030268;28;20030;-77
2023/04/27 02:57:53;;;;;;;7.75;1.80;;;;;;;;;;1025172;28;20031;-78
2023/04/27 02:58:24;;;;;;;1.70;1.35;;;;;;;;;;1021890;28;20569;-79
2023/04/27 02:58:55;;;;;;;2.63;1.58;;;;;;;;;;1022533;29;20015;-77
2023/04/27 02:59:25;;;;;;;7.18;1.52;;;;;;;;;;1022983;28;20118;-79
2023/04/27 02:59:56;;;;;;;3.42;1.27;;;;;;;;;;1026570;28;20035;-76
2023/04/27 03:00:27;;;;;;;3.50;2.72;;;;;;;;;;1029227;28;20125;-77
2023/04/27 03:00:57;;;;;;;9.95;2.65;;;;;;;;;;1028421;28;20038;-77
2023/04/27 03:01:31;;;;;;;5.57;3.28;;;;;;;;;;1030688;28;20064;-77
2023/04/27 03:02:02;;;;;;;2.60;1.40;;;;;;;;;;1026088;28;20035;-76
2023/04/27 03:02:32;;;;;;;6.45;2.38;;;;;;;;;;1026049;28;20543;-77
2023/04/27 03:03:03;;;;;;;2.55;1.58;;;;;;;;;;1027538;28;20549;-77
2023/04/27 03:03:34;;;;;;;9.82;2.15;;;;;;;;;;1030775;28;20044;-76
2023/04/27 03:04:05;;;;;;;2.08;0.85;;;;;;;;;;1029726;28;20037;-77